createdAt,value
2019-04-25T00:00:38.026Z,99.90
2019-04-25T00:03:12.220Z,99.90
2019-04-25T00:05:44.737Z,99.90
2019-04-25T00:08:17.435Z,99.90
2019-04-25T00:10:49.567Z,99.90
2019-04-25T00:13:22.064Z,99.90
2019-04-25T00:15:54.163Z,99.90
2019-04-25T00:18:26.357Z,99.90
2019-04-25T00:21:02.740Z,99.90
2019-04-25T00:23:36.065Z,99.90
2019-04-25T00:26:26.874Z,99.90
2019-04-25T00:28:59.027Z,99.90
2019-04-25T00:31:31.881Z,99.90
2019-04-25T00:34:04.368Z,99.90
2019-04-25T00:36:38.972Z,99.90
2019-04-25T00:39:11.885Z,99.90
2019-04-25T00:41:46.158Z,99.90
2019-04-25T00:44:19.181Z,99.90
2019-04-25T00:46:56.165Z,99.90
2019-04-25T00:49:25.463Z,99.90
2019-04-25T00:51:57.833Z,99.90
2019-04-25T00:54:31.351Z,99.90
2019-04-25T00:57:03.673Z,99.90
2019-04-25T00:59:45.466Z,99.90
2019-04-25T01:02:36.617Z,99.90
2019-04-25T01:05:09.677Z,99.90
2019-04-25T01:07:42.321Z,99.90
2019-04-25T01:10:15.439Z,99.90
2019-04-25T01:12:48.204Z,99.90
2019-04-25T01:15:21.439Z,99.90
2019-04-25T01:17:54.120Z,99.90
2019-04-25T01:20:27.213Z,99.90
2019-04-25T01:23:00.928Z,99.90
2019-04-25T01:25:40.913Z,99.90
2019-04-25T01:28:07.909Z,99.90
2019-04-25T01:30:40.906Z,99.90
2019-04-25T01:33:13.605Z,99.90
2019-04-25T01:36:00.550Z,99.90
2019-04-25T01:38:49.139Z,99.90
2019-04-25T01:41:41.897Z,99.90
2019-04-25T01:44:21.759Z,99.90
2019-04-25T01:46:55.318Z,99.90
2019-04-25T01:49:28.423Z,99.90
2019-04-25T01:52:00.505Z,99.90
2019-04-25T01:54:33.955Z,99.90
2019-04-25T01:57:06.620Z,99.90
2019-04-25T01:59:39.323Z,99.90
2019-04-25T02:02:14.660Z,99.90
2019-04-25T02:04:47.227Z,99.90
2019-04-25T02:07:19.990Z,99.90
2019-04-25T02:09:54.743Z,99.90
2019-04-25T02:12:43.596Z,99.90
2019-04-25T02:15:17.609Z,99.90
2019-04-25T02:17:51.099Z,99.90
2019-04-25T02:20:23.972Z,99.90
2019-04-25T02:22:56.464Z,99.90
2019-04-25T02:25:28.987Z,99.90
2019-04-25T02:28:02.437Z,99.90
2019-04-25T02:30:36.002Z,99.90
2019-04-25T02:33:09.323Z,99.90
2019-04-25T02:35:44.005Z,99.90
2019-04-25T02:38:17.024Z,99.90
2019-04-25T02:40:49.758Z,99.90
2019-04-25T02:43:23.896Z,99.90
2019-04-25T02:46:15.205Z,99.90
2019-04-25T02:49:29.758Z,99.90
2019-04-25T02:52:03.427Z,99.90
2019-04-25T02:54:36.354Z,99.90
2019-04-25T02:57:10.007Z,99.90
2019-04-25T02:59:44.826Z,99.90
2019-04-25T03:02:17.156Z,99.90
2019-04-25T03:04:49.214Z,99.90
2019-04-25T03:07:21.366Z,99.90
2019-04-25T03:09:54.783Z,99.90
2019-04-25T03:12:33.220Z,99.90
2019-04-25T03:15:02.089Z,99.90
2019-04-25T03:17:35.157Z,99.90
2019-04-25T03:20:35.273Z,99.90
2019-04-25T03:23:35.002Z,99.90
2019-04-25T03:26:08.015Z,99.90
2019-04-25T03:28:40.102Z,99.90
2019-04-25T03:31:18.696Z,99.90
2019-04-25T03:33:46.389Z,99.90
2019-04-25T03:36:18.655Z,99.90
2019-04-25T03:38:51.131Z,99.90
2019-04-25T03:41:24.550Z,99.90
2019-04-25T03:43:56.764Z,99.90
2019-04-25T03:46:28.837Z,99.90
2019-04-25T03:49:01.206Z,99.90
2019-04-25T03:51:34.287Z,99.90
2019-04-25T03:54:07.486Z,99.90
2019-04-25T03:56:49.865Z,99.90
2019-04-25T03:59:15.920Z,99.90
2019-04-25T04:01:47.908Z,99.90
2019-04-25T04:04:19.906Z,99.90
2019-04-25T04:06:53.597Z,99.90
2019-04-25T04:09:25.654Z,99.90
2019-04-25T04:11:57.975Z,99.90
2019-04-25T04:14:30.085Z,99.90
2019-04-25T04:17:36.441Z,99.90
2019-04-25T04:20:27.118Z,99.90
2019-04-25T04:23:07.377Z,99.90
2019-04-25T04:25:39.569Z,99.90
2019-04-25T04:28:13.788Z,99.90
2019-04-25T04:30:46.431Z,99.90
2019-04-25T04:33:29.494Z,99.90
2019-04-25T04:35:54.325Z,99.90
2019-04-25T04:38:27.258Z,99.90
2019-04-25T04:40:59.952Z,99.90
2019-04-25T04:43:34.218Z,99.90
2019-04-25T04:46:06.771Z,99.90
2019-04-25T04:48:39.148Z,99.90
2019-04-25T04:51:11.188Z,99.90
2019-04-25T04:53:43.849Z,99.90
2019-04-25T04:56:16.513Z,99.90
2019-04-25T04:58:49.579Z,99.90
2019-04-25T05:01:24.725Z,99.90
2019-04-25T05:04:14.542Z,99.90
2019-04-25T05:06:54.127Z,99.90
2019-04-25T05:09:28.101Z,99.90
2019-04-25T05:12:00.182Z,99.90
2019-04-25T05:14:33.653Z,99.90
2019-04-25T05:17:07.752Z,99.90
2019-04-25T05:19:40.265Z,99.90
2019-04-25T05:22:14.443Z,99.90
2019-04-25T05:24:46.118Z,99.90
2019-04-25T05:27:33.712Z,99.90
2019-04-25T05:29:51.983Z,99.90
2019-04-25T05:32:25.209Z,99.90
2019-04-25T05:34:57.386Z,99.90
2019-04-25T05:37:29.455Z,99.90
2019-04-25T05:40:01.470Z,99.90
2019-04-25T05:42:55.229Z,99.90
2019-04-25T05:45:29.244Z,99.90
2019-04-25T05:48:01.519Z,99.90
2019-04-25T05:50:33.944Z,99.90
2019-04-25T05:53:06.169Z,99.90
2019-04-25T05:55:38.252Z,99.90
2019-04-25T05:58:10.426Z,99.90
2019-04-25T06:00:44.073Z,99.90
2019-04-25T06:03:17.186Z,99.90
2019-04-25T06:05:50.643Z,99.90
2019-04-25T06:08:26.465Z,99.90
2019-04-25T06:11:10.523Z,99.90
2019-04-25T06:13:51.315Z,99.60
2019-04-25T06:16:43.664Z,99.10
2019-04-25T06:19:34.051Z,99.90
2019-04-25T06:22:08.305Z,98.00
2019-04-25T06:24:52.233Z,96.90
2019-04-25T06:27:31.737Z,96.70
2019-04-25T06:30:08.688Z,96.90
2019-04-25T06:32:41.486Z,96.30
2019-04-25T06:35:14.547Z,96.00
2019-04-25T06:37:47.171Z,96.60
2019-04-25T06:40:20.598Z,97.10
2019-04-25T06:42:53.559Z,97.70
2019-04-25T06:45:56.094Z,97.60
2019-04-25T06:48:38.530Z,98.70
2019-04-25T06:51:11.021Z,95.90
2019-04-25T06:53:43.719Z,95.30
2019-04-25T06:56:16.339Z,94.50
2019-04-25T06:58:49.037Z,95.00
2019-04-25T07:01:22.257Z,95.00
2019-04-25T07:03:55.230Z,94.90
2019-04-25T07:06:27.633Z,93.60
2019-04-25T07:08:59.816Z,93.00
2019-04-25T07:11:32.877Z,91.60
2019-04-25T07:14:06.593Z,90.50
2019-04-25T07:16:39.125Z,90.50
2019-04-25T07:19:11.860Z,89.80
2019-04-25T07:21:44.434Z,88.20
2019-04-25T07:24:17.554Z,87.30
2019-04-25T07:27:07.697Z,87.30
2019-04-25T07:30:01.328Z,87.00
2019-04-25T07:32:44.733Z,86.60
2019-04-25T07:35:17.802Z,86.50
2019-04-25T07:37:49.889Z,85.00
2019-04-25T07:40:23.654Z,84.50
2019-04-25T07:42:55.830Z,85.40
2019-04-25T07:45:28.751Z,83.70
2019-04-25T07:48:00.733Z,84.20
2019-04-25T07:50:34.307Z,83.50
2019-04-25T07:53:06.741Z,82.20
2019-04-25T07:55:38.959Z,82.30
2019-04-25T07:58:11.154Z,79.80
2019-04-25T08:00:43.947Z,78.50
2019-04-25T08:03:16.775Z,76.70
2019-04-25T08:05:49.427Z,74.40
2019-04-25T08:08:23.422Z,74.40
2019-04-25T08:11:04.858Z,80.00
2019-04-25T08:13:46.218Z,76.70
2019-04-25T08:16:20.601Z,76.60
2019-04-25T08:18:54.081Z,78.70
2019-04-25T08:21:26.819Z,78.60
2019-04-25T08:24:01.158Z,78.20
2019-04-25T08:26:36.091Z,74.20
2019-04-25T08:29:08.527Z,76.40
2019-04-25T08:31:41.145Z,74.50
2019-04-25T08:34:14.444Z,73.20
2019-04-25T08:36:47.148Z,73.90
2019-04-25T08:39:19.802Z,75.40
2019-04-25T08:41:53.880Z,74.90
2019-04-25T08:44:26.734Z,74.10
2019-04-25T08:46:59.524Z,71.80
2019-04-25T08:49:40.915Z,72.80
2019-04-25T08:52:13.494Z,70.70
2019-04-25T08:54:57.481Z,70.90
2019-04-25T08:57:47.518Z,73.60
2019-04-25T09:00:44.597Z,72.90
2019-04-25T09:03:19.766Z,69.30
2019-04-25T09:05:53.406Z,69.10
2019-04-25T09:08:25.851Z,68.50
2019-04-25T09:10:57.914Z,65.90
2019-04-25T09:13:29.894Z,65.10
2019-04-25T09:16:03.533Z,63.30
2019-04-25T09:18:37.002Z,61.50
2019-04-25T09:21:09.172Z,60.70
2019-04-25T09:23:41.600Z,61.00
2019-04-25T09:26:14.268Z,60.30
2019-04-25T09:28:46.714Z,60.60
2019-04-25T09:31:18.867Z,60.10
2019-04-25T09:33:55.950Z,58.90
2019-04-25T09:36:27.965Z,58.30
2019-04-25T09:39:03.771Z,57.70
2019-04-25T09:41:36.075Z,56.90
2019-04-25T09:44:09.846Z,57.70
2019-04-25T09:46:44.109Z,58.50
2019-04-25T09:49:23.716Z,57.80
2019-04-25T09:52:15.373Z,56.80
2019-04-25T09:54:59.615Z,56.00
2019-04-25T09:57:43.454Z,55.40
2019-04-25T10:00:37.947Z,54.40
2019-04-25T10:03:10.352Z,54.50
2019-04-25T10:05:42.711Z,54.50
2019-04-25T10:08:14.881Z,54.20
2019-04-25T10:10:46.949Z,54.50
2019-04-25T10:13:18.942Z,54.90
2019-04-25T10:16:12.486Z,54.80
2019-04-25T10:18:45.565Z,54.90
2019-04-25T10:21:18.037Z,55.00
2019-04-25T10:23:51.263Z,54.80
2019-04-25T10:26:24.946Z,55.50
2019-04-25T10:28:57.136Z,55.50
2019-04-25T10:31:29.266Z,55.90
2019-04-25T10:34:01.955Z,55.60
2019-04-25T10:36:34.522Z,53.50
2019-04-25T10:39:11.197Z,53.50
2019-04-25T10:41:44.765Z,53.80
2019-04-25T10:44:16.605Z,53.00
2019-04-25T10:46:48.844Z,53.40
2019-04-25T10:49:20.976Z,53.30
2019-04-25T10:51:53.200Z,53.00
2019-04-25T10:54:25.210Z,54.20
2019-04-25T10:56:57.280Z,52.70
2019-04-25T10:59:29.290Z,51.40
2019-04-25T11:02:01.363Z,50.80
2019-04-25T11:04:41.057Z,49.80
2019-04-25T11:07:14.185Z,49.50
2019-04-25T11:09:47.131Z,49.60
2019-04-25T11:12:20.265Z,49.70
2019-04-25T11:14:53.275Z,49.70
2019-04-25T11:17:26.287Z,49.90
2019-04-25T11:19:58.360Z,48.70
2019-04-25T11:22:30.558Z,49.20
2019-04-25T11:25:02.699Z,49.10
2019-04-25T11:27:35.466Z,49.00
2019-04-25T11:30:11.538Z,49.60
2019-04-25T11:32:45.093Z,49.10
2019-04-25T11:35:19.193Z,49.30
2019-04-25T11:37:52.989Z,49.50
2019-04-25T11:40:34.606Z,49.40
2019-04-25T11:43:07.791Z,49.00
2019-04-25T11:45:41.479Z,48.20
2019-04-25T11:48:13.949Z,48.80
2019-04-25T11:50:49.672Z,49.20
2019-04-25T11:53:20.159Z,49.30
2019-04-25T11:55:53.789Z,50.20
2019-04-25T11:58:27.228Z,50.70
2019-04-25T12:00:59.276Z,51.20
2019-04-25T12:03:31.374Z,50.60
2019-04-25T12:06:03.942Z,50.50
2019-04-25T12:08:36.014Z,52.10
2019-04-25T12:11:08.062Z,53.50
2019-04-25T12:13:40.174Z,54.70
2019-04-25T12:16:14.292Z,54.80
2019-04-25T12:18:49.200Z,54.70
2019-04-25T12:21:20.674Z,55.90
2019-04-25T12:23:53.266Z,57.50
2019-04-25T12:26:26.317Z,53.10
2019-04-25T12:28:59.230Z,52.50
2019-04-25T12:31:31.995Z,53.40
2019-04-25T12:34:04.201Z,53.40
2019-04-25T12:36:36.578Z,55.00
2019-04-25T12:39:10.055Z,56.20
2019-04-25T12:41:44.201Z,56.90
2019-04-25T12:44:33.973Z,55.80
2019-04-25T12:47:13.622Z,58.70
2019-04-25T12:49:46.736Z,56.00
2019-04-25T12:52:19.755Z,56.30
2019-04-25T12:54:55.493Z,56.70
2019-04-25T12:57:26.534Z,54.80
2019-04-25T12:59:59.056Z,55.20
2019-04-25T13:02:34.491Z,55.20
2019-04-25T13:05:07.128Z,56.00
2019-04-25T13:07:39.998Z,53.90
2019-04-25T13:10:13.190Z,54.20
2019-04-25T13:12:47.250Z,54.40
2019-04-25T13:15:19.912Z,55.00
2019-04-25T13:17:53.626Z,55.20
2019-04-25T13:20:26.353Z,55.80
2019-04-25T13:22:59.097Z,56.00
2019-04-25T13:25:31.698Z,57.10
2019-04-25T13:28:23.317Z,58.00
2019-04-25T13:31:14.893Z,57.80
2019-04-25T13:34:14.080Z,58.40
2019-04-25T13:36:47.055Z,57.40
2019-04-25T13:39:20.085Z,56.90
2019-04-25T13:41:54.355Z,57.50
2019-04-25T13:44:27.150Z,58.10
2019-04-25T13:46:59.676Z,57.80
2019-04-25T13:49:32.753Z,57.90
2019-04-25T13:52:05.909Z,57.60
2019-04-25T13:54:40.154Z,58.10
2019-04-25T13:57:13.278Z,58.30
2019-04-25T13:59:45.999Z,58.90
2019-04-25T14:02:18.505Z,58.90
2019-04-25T14:04:51.969Z,57.70
2019-04-25T14:07:24.884Z,57.80
2019-04-25T14:09:56.990Z,57.70
2019-04-25T14:12:30.210Z,58.10
2019-04-25T14:15:03.920Z,58.60
2019-04-25T14:17:57.252Z,58.80
2019-04-25T14:20:45.009Z,59.00
2019-04-25T14:23:17.545Z,58.90
2019-04-25T14:25:49.659Z,58.00
2019-04-25T14:28:21.976Z,58.70
2019-04-25T14:30:54.078Z,58.50
2019-04-25T14:33:27.476Z,58.20
2019-04-25T14:35:59.959Z,57.90
2019-04-25T14:38:33.481Z,57.90
2019-04-25T14:41:08.083Z,58.00
2019-04-25T14:43:40.257Z,57.80
2019-04-25T14:46:12.710Z,57.70
2019-04-25T14:48:44.875Z,57.90
2019-04-25T14:51:17.436Z,56.80
2019-04-25T14:53:50.081Z,56.60
2019-04-25T14:56:39.525Z,55.60
2019-04-25T14:59:11.524Z,55.00
2019-04-25T15:01:45.215Z,54.40
2019-04-25T15:04:17.843Z,54.50
2019-04-25T15:06:50.314Z,54.00
2019-04-25T15:09:23.357Z,54.10
2019-04-25T15:11:55.616Z,54.40
2019-04-25T15:14:27.833Z,53.90
2019-04-25T15:16:59.887Z,54.20
2019-04-25T15:19:32.035Z,54.20
2019-04-25T15:22:04.104Z,54.90
2019-04-25T15:24:36.291Z,55.30
2019-04-25T15:27:09.059Z,55.10
2019-04-25T15:29:41.327Z,55.30
2019-04-25T15:32:16.800Z,55.60
2019-04-25T15:34:54.687Z,55.80
2019-04-25T15:37:35.538Z,55.90
2019-04-25T15:40:29.795Z,55.20
2019-04-25T15:43:33.400Z,55.10
2019-04-25T15:46:11.683Z,55.40
2019-04-25T15:48:43.705Z,55.30
2019-04-25T15:51:15.713Z,55.20
2019-04-25T15:53:47.742Z,55.40
2019-04-25T15:56:19.774Z,55.70
2019-04-25T15:58:52.087Z,56.10
2019-04-25T16:01:24.149Z,55.60
2019-04-25T16:03:56.242Z,56.00
2019-04-25T16:06:28.298Z,55.80
2019-04-25T16:09:00.811Z,55.90
2019-04-25T16:11:33.062Z,55.20
2019-04-25T16:14:05.531Z,55.40
2019-04-25T16:16:38.381Z,55.20
2019-04-25T16:19:10.672Z,54.90
2019-04-25T16:21:42.879Z,55.50
2019-04-25T16:24:15.226Z,55.80
2019-04-25T16:26:47.389Z,55.60
2019-04-25T16:29:19.487Z,54.80
2019-04-25T16:31:51.820Z,54.80
2019-04-25T16:34:23.880Z,55.00
2019-04-25T16:36:56.098Z,54.50
2019-04-25T16:39:30.925Z,54.70
2019-04-25T16:42:03.260Z,55.10
2019-04-25T16:44:36.147Z,55.10
2019-04-25T16:47:08.823Z,55.00
2019-04-25T16:49:41.988Z,55.30
2019-04-25T16:52:17.550Z,55.20
2019-04-25T16:54:48.689Z,55.80
2019-04-25T16:57:21.446Z,55.30
2019-04-25T16:59:53.633Z,55.30
2019-04-25T17:02:35.504Z,55.50
2019-04-25T17:05:05.177Z,55.20
2019-04-25T17:07:37.216Z,56.00
2019-04-25T17:10:10.715Z,55.20
2019-04-25T17:12:42.743Z,55.70
2019-04-25T17:15:32.152Z,55.90
2019-04-25T17:18:17.273Z,55.90
2019-04-25T17:20:54.628Z,56.10
2019-04-25T17:23:27.239Z,55.70
2019-04-25T17:25:59.458Z,56.30
2019-04-25T17:28:33.175Z,56.80
2019-04-25T17:31:39.497Z,57.00
2019-04-25T17:34:30.777Z,57.10
2019-04-25T17:37:18.161Z,57.70
2019-04-25T17:39:54.037Z,58.60
2019-04-25T17:42:26.338Z,59.10
2019-04-25T17:44:58.428Z,59.60
2019-04-25T17:47:30.713Z,60.00
2019-04-25T17:50:03.074Z,60.50
2019-04-25T17:52:36.172Z,61.30
2019-04-25T17:55:09.172Z,61.80
2019-04-25T17:57:42.086Z,62.10
2019-04-25T18:00:26.836Z,62.40
2019-04-25T18:02:59.337Z,62.70
2019-04-25T18:05:31.553Z,63.00
2019-04-25T18:08:03.658Z,63.00
2019-04-25T18:10:36.168Z,63.10
2019-04-25T18:13:09.576Z,63.50
2019-04-25T18:16:00.719Z,63.60
2019-04-25T18:18:54.360Z,63.80
2019-04-25T18:21:26.474Z,64.20
2019-04-25T18:24:26.395Z,64.50
2019-04-25T18:27:17.433Z,64.70
2019-04-25T18:29:49.643Z,64.80
2019-04-25T18:32:22.349Z,65.80
2019-04-25T18:34:59.630Z,66.20
2019-04-25T18:37:48.862Z,66.70
2019-04-25T18:40:39.833Z,65.90
2019-04-25T18:43:34.400Z,67.80
2019-04-25T18:46:11.599Z,67.30
2019-04-25T18:48:44.934Z,67.50
2019-04-25T18:51:17.446Z,67.00
2019-04-25T18:54:07.009Z,67.70
2019-04-25T18:57:03.967Z,66.20
2019-04-25T18:59:44.858Z,68.90
2019-04-25T19:02:39.798Z,68.50
2019-04-25T19:05:33.751Z,65.30
2019-04-25T19:08:06.471Z,66.00
2019-04-25T19:10:39.565Z,64.10
2019-04-25T19:13:13.151Z,63.80
2019-04-25T19:15:45.563Z,64.20
2019-04-25T19:18:17.698Z,64.00
2019-04-25T19:21:04.594Z,63.30
2019-04-25T19:23:36.836Z,63.70
2019-04-25T19:26:10.826Z,63.50
2019-04-25T19:28:43.181Z,63.10
2019-04-25T19:31:15.366Z,63.40
2019-04-25T19:33:47.575Z,63.70
2019-04-25T19:36:20.283Z,64.30
2019-04-25T19:38:52.999Z,65.00
2019-04-25T19:41:49.749Z,65.30
2019-04-25T19:44:26.174Z,65.20
2019-04-25T19:46:59.071Z,65.90
2019-04-25T19:49:31.542Z,65.60
2019-04-25T19:52:04.553Z,65.40
2019-04-25T19:54:37.262Z,66.30
2019-04-25T19:57:09.989Z,67.20
2019-04-25T19:59:43.255Z,66.70
2019-04-25T20:02:38.181Z,67.70
2019-04-25T20:05:18.188Z,68.20
2019-04-25T20:08:28.243Z,68.40
2019-04-25T20:11:05.102Z,68.10
2019-04-25T20:13:49.265Z,68.50
2019-04-25T20:16:22.206Z,69.60
2019-04-25T20:18:54.824Z,69.80
2019-04-25T20:21:27.680Z,70.50
2019-04-25T20:24:00.559Z,70.60
2019-04-25T20:26:33.086Z,70.50
2019-04-25T20:29:05.847Z,70.20
2019-04-25T20:31:38.309Z,70.50
2019-04-25T20:34:10.736Z,70.80
2019-04-25T20:36:43.577Z,71.50
2019-04-25T20:39:16.178Z,70.40
2019-04-25T20:41:49.747Z,71.10
2019-04-25T20:44:22.587Z,71.10
2019-04-25T20:46:55.305Z,71.50
2019-04-25T20:49:28.071Z,71.80
2019-04-25T20:52:00.578Z,71.60
2019-04-25T20:54:33.227Z,71.50
2019-04-25T20:57:05.921Z,71.90
2019-04-25T20:59:38.769Z,72.50
2019-04-25T21:02:11.210Z,72.60
2019-04-25T21:04:44.073Z,72.60
2019-04-25T21:07:17.039Z,73.00
2019-04-25T21:09:50.379Z,72.80
2019-04-25T21:12:24.113Z,73.00
2019-04-25T21:15:13.182Z,73.10
2019-04-25T21:18:02.367Z,73.20
2019-04-25T21:20:35.117Z,73.10
2019-04-25T21:23:07.734Z,73.30
2019-04-25T21:25:40.487Z,73.20
2019-04-25T21:28:13.333Z,73.00
2019-04-25T21:30:46.127Z,73.00
2019-04-25T21:33:18.874Z,73.30
2019-04-25T21:35:52.534Z,73.20
2019-04-25T21:38:26.194Z,73.40
2019-04-25T21:41:20.623Z,73.80
2019-04-25T21:43:58.428Z,73.70
2019-04-25T21:46:31.478Z,74.10
2019-04-25T21:49:04.601Z,74.00
2019-04-25T21:51:37.513Z,74.50
2019-04-25T21:54:10.038Z,74.40
2019-04-25T21:56:42.895Z,75.00
2019-04-25T21:59:15.876Z,75.60
2019-04-25T22:01:49.167Z,75.30
2019-04-25T22:04:21.991Z,74.50
2019-04-25T22:06:56.005Z,74.80
2019-04-25T22:09:29.447Z,76.10
2019-04-25T22:12:03.021Z,76.30
2019-04-25T22:14:36.164Z,77.20
2019-04-25T22:17:09.856Z,76.90
2019-04-25T22:19:43.124Z,77.60
2019-04-25T22:22:16.015Z,77.60
2019-04-25T22:24:49.220Z,77.70
2019-04-25T22:27:27.242Z,76.90
2019-04-25T22:30:00.026Z,77.60
2019-04-25T22:32:51.048Z,77.10
2019-04-25T22:35:26.896Z,76.70
2019-04-25T22:38:00.033Z,77.10
2019-04-25T22:40:32.579Z,76.50
2019-04-25T22:43:05.929Z,76.00
2019-04-25T22:45:38.858Z,75.10
2019-04-25T22:48:11.532Z,73.20
2019-04-25T22:50:44.187Z,73.50
2019-04-25T22:53:23.766Z,72.60
2019-04-25T22:55:50.970Z,72.50
2019-04-25T22:58:23.493Z,72.50
2019-04-25T23:00:56.149Z,72.00
2019-04-25T23:03:36.045Z,72.20
2019-04-25T23:06:09.627Z,72.00
2019-04-25T23:08:42.429Z,72.10
2019-04-25T23:11:15.049Z,71.70
2019-04-25T23:13:47.787Z,71.80
2019-04-25T23:16:20.368Z,71.70
2019-04-25T23:18:53.137Z,71.90
2019-04-25T23:21:25.776Z,71.70
2019-04-25T23:23:59.758Z,72.00
2019-04-25T23:26:51.064Z,72.00
2019-04-25T23:29:23.959Z,72.00
2019-04-25T23:31:56.266Z,72.10
2019-04-25T23:34:29.035Z,72.10
2019-04-25T23:37:01.379Z,72.30
2019-04-25T23:39:34.464Z,72.50
2019-04-25T23:42:07.307Z,72.30
2019-04-25T23:44:40.449Z,72.60
2019-04-25T23:47:13.064Z,72.80
2019-04-25T23:49:45.488Z,72.90
2019-04-25T23:52:18.345Z,72.70
2019-04-25T23:54:50.984Z,72.80
2019-04-25T23:57:24.070Z,72.80
2019-04-25T23:59:56.966Z,73.50
